Station History

Weather Underground - logo

Station Historical Data
Daily Summary for February 15, 2018 Units:  English    Metric   Both
« Previous Day
Next Day »
Daily Weekly Monthly Yearly Custom
  High: Low: Average:
Temperature: 63.7 °F 36.3 °F 48.8 °F
Dew Point: 42.9 °F 32.7 °F 37.6 °F
Humidity: 90 % 39 % 68 %
Wind Speed: 4.6 mph 0.0 mph 0.6 mph
Wind Gust: 4.6 mph - -
Wind:- - SW
Pressure: 30.32 in 30.14 in -
Precipitation: 0.00 in    
Historical Graphs
 
 
Tabular Data for February 15, 2018
Time Temperature Dew Point Pressure Wind Wind Speed Wind Gust Humidity Rainfall Rate (Hourly)
00:01 42.0 °F 36.6 °F 30.15 in Calm     81 % 0.00 in
00:06 42.4 °F 36.7 °F 30.15 in Calm     80 % 0.00 in
00:11 42.3 °F 36.6 °F 30.15 in Calm     80 % 0.00 in
00:16 41.8 °F 36.1 °F 30.15 in Calm     80 % 0.00 in
00:21 41.8 °F 36.1 °F 30.15 in Calm     80 % 0.00 in
00:26 41.6 °F 35.9 °F 30.15 in Calm     80 % 0.00 in
00:31 41.4 °F 36.3 °F 30.15 in Calm     82 % 0.00 in
00:36 41.8 °F 36.4 °F 30.15 in Calm     81 % 0.00 in
00:41 41.3 °F 35.6 °F 30.15 in Calm     80 % 0.00 in
00:46 41.2 °F 36.1 °F 30.15 in Calm     82 % 0.00 in
00:51 41.2 °F 36.1 °F 30.15 in Calm     82 % 0.00 in
00:56 41.0 °F 35.9 °F 30.15 in Calm     82 % 0.00 in
01:01 40.8 °F 35.7 °F 30.15 in Calm     82 % 0.00 in
01:06 40.7 °F 35.9 °F 30.15 in Calm     83 % 0.00 in
01:11 40.5 °F 35.7 °F 30.15 in Calm     83 % 0.00 in
01:16 40.4 °F 35.9 °F 30.15 in Calm     84 % 0.00 in
01:21 40.9 °F 36.1 °F 30.15 in Calm     83 % 0.00 in
01:26 41.1 °F 36.0 °F 30.15 in Calm     82 % 0.00 in
01:31 41.3 °F 36.2 °F 30.15 in Calm     82 % 0.00 in
01:37 41.3 °F 35.9 °F 30.15 in Calm     81 % 0.00 in
01:42 41.3 °F 36.2 °F 30.15 in Calm     82 % 0.00 in
01:47 41.2 °F 36.1 °F 30.15 in Calm     82 % 0.00 in
01:52 40.9 °F 35.5 °F 30.15 in Calm     81 % 0.00 in
01:57 40.8 °F 35.7 °F 30.15 in Calm     82 % 0.00 in
02:02 40.6 °F 35.5 °F 30.15 in Calm     82 % 0.00 in
02:07 40.4 °F 35.3 °F 30.15 in Calm     82 % 0.00 in
02:12 40.0 °F 34.6 °F 30.15 in Calm     81 % 0.00 in
02:17 39.3 °F 34.6 °F 30.14 in Calm     83 % 0.00 in
02:22 39.3 °F 34.9 °F 30.15 in Calm     84 % 0.00 in
02:27 39.5 °F 34.8 °F 30.15 in Calm     83 % 0.00 in
02:32 39.3 °F 34.6 °F 30.15 in Calm     83 % 0.00 in
02:37 39.1 °F 34.4 °F 30.14 in Calm     83 % 0.00 in
02:42 39.0 °F 34.6 °F 30.14 in Calm     84 % 0.00 in
02:47 39.3 °F 34.9 °F 30.14 in Calm     84 % 0.00 in
02:52 39.4 °F 34.7 °F 30.14 in Calm     83 % 0.00 in
02:57 39.5 °F 34.8 °F 30.14 in Calm     83 % 0.00 in
03:02 39.4 °F 34.7 °F 30.14 in Calm     83 % 0.00 in
03:07 39.5 °F 34.8 °F 30.14 in Calm     83 % 0.00 in
03:12 39.7 °F 34.7 °F 30.14 in Calm     82 % 0.00 in
03:17 39.3 °F 34.3 °F 30.14 in Calm     82 % 0.00 in
03:22 38.9 °F 33.9 °F 30.14 in Calm     82 % 0.00 in
03:27 38.7 °F 34.0 °F 30.14 in Calm     83 % 0.00 in
03:32 38.7 °F 34.0 °F 30.14 in Calm     83 % 0.00 in
03:37 38.6 °F 33.9 °F 30.15 in Calm     83 % 0.00 in
03:42 38.2 °F 33.8 °F 30.15 in Calm     84 % 0.00 in
03:47 37.7 °F 33.3 °F 30.15 in Calm     84 % 0.00 in
03:52 37.4 °F 33.3 °F 30.15 in Calm     85 % 0.00 in
03:57 37.5 °F 33.7 °F 30.15 in Calm     86 % 0.00 in
04:02 37.7 °F 33.9 °F 30.15 in Calm     86 % 0.00 in
04:07 37.5 °F 33.4 °F 30.15 in Calm     85 % 0.00 in
04:12 37.4 °F 33.6 °F 30.15 in Calm     86 % 0.00 in
04:17 37.5 °F 33.7 °F 30.15 in Calm     86 % 0.00 in
04:22 37.4 °F 33.6 °F 30.15 in Calm     86 % 0.00 in
04:27 37.3 °F 33.5 °F 30.15 in Calm     86 % 0.00 in
04:32 36.8 °F 32.7 °F 30.15 in Calm     85 % 0.00 in
04:37 36.8 °F 33.3 °F 30.15 in Calm     87 % 0.00 in
04:42 37.0 °F 33.8 °F 30.16 in Calm     88 % 0.00 in
04:47 37.4 °F 34.2 °F 30.16 in Calm     88 % 0.00 in
04:52 37.4 °F 33.9 °F 30.16 in Calm     87 % 0.00 in
04:57 37.3 °F 33.8 °F 30.16 in Calm     87 % 0.00 in
05:02 37.1 °F 33.3 °F 30.16 in Calm     86 % 0.00 in
05:07 36.9 °F 33.1 °F 30.16 in Calm     86 % 0.00 in
05:12 36.7 °F 33.2 °F 30.16 in Calm     87 % 0.00 in
05:17 36.9 °F 33.7 °F 30.17 in Calm     88 % 0.00 in
05:22 36.8 °F 33.3 °F 30.17 in Calm     87 % 0.00 in
05:28 36.8 °F 33.3 °F 30.17 in Calm     87 % 0.00 in
05:33 37.2 °F 34.0 °F 30.17 in Calm     88 % 0.00 in
05:37 37.3 °F 33.8 °F 30.18 in Calm     87 % 0.00 in
05:42 37.5 °F 34.0 °F 30.18 in Calm     87 % 0.00 in
05:48 37.5 °F 33.7 °F 30.18 in Calm     86 % 0.00 in
05:53 37.3 °F 33.5 °F 30.18 in Calm     86 % 0.00 in
05:58 37.2 °F 33.4 °F 30.19 in Calm     86 % 0.00 in
06:03 37.0 °F 33.5 °F 30.19 in West 1.2 mph 1.2 mph 87 % 0.00 in
06:08 37.8 °F 34.3 °F 30.19 in Calm     87 % 0.00 in
06:13 38.3 °F 34.5 °F 30.19 in Calm     86 % 0.00 in
06:18 38.6 °F 34.5 °F 30.19 in Calm     85 % 0.00 in
06:23 38.9 °F 34.5 °F 30.20 in Calm     84 % 0.00 in
06:28 39.1 °F 34.7 °F 30.20 in WNW 1.2 mph 1.2 mph 84 % 0.00 in
06:33 39.5 °F 34.8 °F 30.20 in Calm     83 % 0.00 in
06:38 39.5 °F 34.5 °F 30.20 in Calm     82 % 0.00 in
06:43 38.9 °F 33.6 °F 30.21 in NW 1.2 mph 1.2 mph 81 % 0.00 in
06:48 37.5 °F 32.8 °F 30.21 in Calm     83 % 0.00 in
06:53 36.9 °F 32.8 °F 30.21 in Calm     85 % 0.00 in
06:58 36.6 °F 32.8 °F 30.21 in Calm     86 % 0.00 in
07:03 36.5 °F 33.0 °F 30.21 in Calm     87 % 0.00 in
07:08 36.4 °F 33.2 °F 30.22 in Calm     88 % 0.00 in
07:13 36.4 °F 33.2 °F 30.22 in Calm     88 % 0.00 in
07:18 36.3 °F 33.1 °F 30.22 in Calm     88 % 0.00 in
07:23 36.3 °F 33.1 °F 30.22 in North 1.2 mph 1.2 mph 88 % 0.00 in
07:28 36.4 °F 33.5 °F 30.23 in Calm     89 % 0.00 in
07:33 36.4 °F 33.5 °F 30.23 in North 1.2 mph 1.2 mph 89 % 0.00 in
07:38 36.5 °F 33.8 °F 30.23 in Calm     90 % 0.00 in
07:43 36.9 °F 34.2 °F 30.23 in North 1.2 mph   90 % 0.00 in
07:48 38.0 °F 35.3 °F 30.23 in SE 1.2 mph 1.2 mph 90 % 0.00 in
07:53 39.2 °F 36.2 °F 30.23 in ESE 1.2 mph 1.2 mph 89 % 0.00 in
07:58 40.2 °F 36.6 °F 30.24 in ESE 2.0 mph 2.0 mph 87 % 0.00 in
08:03 40.9 °F 37.0 °F 30.24 in Calm     86 % 0.00 in
08:08 41.7 °F 37.2 °F 30.24 in East 1.2 mph 1.2 mph 84 % 0.00 in
08:13 42.2 °F 37.4 °F 30.24 in South 1.2 mph   83 % 0.00 in
08:18 42.9 °F 37.5 °F 30.24 in SE 1.2 mph 1.2 mph 81 % 0.00 in
08:23 43.8 °F 38.0 °F 30.25 in Calm     80 % 0.00 in
08:28 44.8 °F 38.4 °F 30.25 in South 3.5 mph 3.5 mph 78 % 0.00 in
08:33 45.6 °F 38.5 °F 30.26 in SE 2.3 mph 2.3 mph 76 % 0.00 in
08:38 46.4 °F 38.9 °F 30.26 in South 1.2 mph 1.2 mph 75 % 0.00 in
08:43 47.3 °F 39.1 °F 30.26 in SSE 1.2 mph 1.2 mph 73 % 0.00 in
08:48 48.0 °F 39.4 °F 30.26 in ESE 1.2 mph 1.2 mph 72 % 0.00 in
08:53 48.8 °F 39.4 °F 30.26 in West 1.2 mph 1.2 mph 70 % 0.00 in
08:58 48.7 °F 39.4 °F 30.26 in Calm     70 % 0.00 in
09:03 48.6 °F 39.6 °F 30.26 in WNW 1.2 mph 1.2 mph 71 % 0.00 in
09:08 48.6 °F 39.6 °F 30.26 in West 1.2 mph 1.2 mph 71 % 0.00 in
09:13 48.9 °F 39.9 °F 30.27 in Calm     71 % 0.00 in
09:18 49.4 °F 40.4 °F 30.27 in Calm     71 % 0.00 in
09:23 50.1 °F 40.7 °F 30.27 in ESE 1.2 mph   70 % 0.00 in
09:28 51.1 °F 40.9 °F 30.27 in Calm   0.2 mph 68 % 0.00 in
09:33 51.7 °F 41.1 °F 30.27 in Calm     67 % 0.00 in
09:38 52.3 °F 41.3 °F 30.27 in Calm     66 % 0.00 in
09:43 52.4 °F 40.6 °F 30.27 in Calm     64 % 0.00 in
09:48 52.2 °F 40.4 °F 30.27 in Calm     64 % 0.00 in
09:53 52.5 °F 41.1 °F 30.27 in Calm     65 % 0.00 in
09:58 53.3 °F 41.0 °F 30.27 in Calm   0.1 mph 63 % 0.00 in
10:08 53.7 °F 40.1 °F 30.27 in Calm     60 % 0.00 in
10:13 54.4 °F 40.4 °F 30.27 in ESE 2.0 mph 2.0 mph 59 % 0.00 in
10:18 54.8 °F 40.7 °F 30.27 in ESE 2.3 mph 2.3 mph 59 % 0.00 in
10:23 55.1 °F 40.1 °F 30.27 in South 2.3 mph 2.3 mph 57 % 0.00 in
10:28 55.7 °F 42.0 °F 30.27 in SSW 1.0 mph 1.0 mph 60 % 0.00 in
10:33 56.1 °F 40.6 °F 30.27 in SSE 3.0 mph 3.0 mph 56 % 0.00 in
10:38 56.1 °F 39.7 °F 30.27 in NNW 2.3 mph 2.3 mph 54 % 0.00 in
10:43 55.7 °F 39.3 °F 30.27 in SE 2.3 mph 2.3 mph 54 % 0.00 in
10:48 56.5 °F 39.6 °F 30.27 in East 2.3 mph 2.3 mph 53 % 0.00 in
10:53 57.0 °F 39.0 °F 30.27 in SSE 1.2 mph   51 % 0.00 in
10:58 57.2 °F 39.7 °F 30.27 in NE 2.3 mph 2.3 mph 52 % 0.00 in
11:03 57.4 °F 40.4 °F 30.27 in South 2.3 mph 2.3 mph 53 % 0.00 in
11:08 57.7 °F 41.2 °F 30.27 in SSW 2.0 mph 2.0 mph 54 % 0.00 in
11:13 57.9 °F 39.9 °F 30.27 in NNW 3.5 mph 3.5 mph 51 % 0.00 in
11:18 58.0 °F 40.5 °F 30.27 in West 1.2 mph   52 % 0.00 in
11:23 58.3 °F 41.2 °F 30.27 in SSE 4.6 mph 4.6 mph 53 % 0.00 in
11:28 58.1 °F 40.1 °F 30.27 in West 1.2 mph   51 % 0.00 in
11:33 57.9 °F 39.9 °F 30.27 in NW 3.5 mph 3.5 mph 51 % 0.00 in
11:38 57.9 °F 41.3 °F 30.26 in SSW 4.0 mph 4.0 mph 54 % 0.00 in
11:43 58.0 °F 40.5 °F 30.26 in WNW 3.5 mph 3.5 mph 52 % 0.00 in
11:48 58.2 °F 41.6 °F 30.26 in South 3.5 mph 3.5 mph 54 % 0.00 in
11:53 59.5 °F 42.3 °F 30.26 in NW 3.5 mph 3.5 mph 53 % 0.00 in
11:58 59.7 °F 40.5 °F 30.25 in East 1.2 mph   49 % 0.00 in
12:03 59.3 °F 40.7 °F 30.25 in Calm     50 % 0.00 in
12:08 59.7 °F 41.5 °F 30.25 in SW 1.2 mph 1.2 mph 51 % 0.00 in
12:13 60.2 °F 41.0 °F 30.25 in NW 1.2 mph 1.2 mph 49 % 0.00 in
12:18 60.8 °F 41.5 °F 30.25 in SSE 3.5 mph 3.5 mph 49 % 0.00 in
12:23 61.1 °F 41.8 °F 30.24 in Calm     49 % 0.00 in
12:28 61.3 °F 40.9 °F 30.24 in WNW 1.2 mph 1.2 mph 47 % 0.00 in
12:33 61.1 °F 41.2 °F 30.24 in SSW 2.3 mph 2.3 mph 48 % 0.00 in
12:38 61.8 °F 41.9 °F 30.24 in WNW 1.2 mph 1.2 mph 48 % 0.00 in
12:44 61.3 °F 40.3 °F 30.24 in South 2.0 mph 2.0 mph 46 % 0.00 in
12:49 61.4 °F 40.4 °F 30.23 in SE 1.2 mph   46 % 0.00 in
12:54 61.6 °F 41.2 °F 30.23 in Calm     47 % 0.00 in
12:59 61.2 °F 41.3 °F 30.23 in SSE 3.5 mph 3.5 mph 48 % 0.00 in
13:04 61.8 °F 40.8 °F 30.23 in ESE 2.3 mph 2.3 mph 46 % 0.00 in
13:09 61.9 °F 40.9 °F 30.23 in South 3.5 mph 3.5 mph 46 % 0.00 in
13:14 61.7 °F 41.3 °F 30.23 in South 2.3 mph 2.3 mph 47 % 0.00 in
13:19 61.6 °F 39.5 °F 30.22 in SE 2.3 mph 2.3 mph 44 % 0.00 in
13:24 62.0 °F 41.0 °F 30.22 in Calm     46 % 0.00 in
13:29 62.4 °F 40.8 °F 30.22 in North 2.3 mph 2.3 mph 45 % 0.00 in
13:34 62.3 °F 42.3 °F 30.22 in Calm     48 % 0.00 in
13:39 61.7 °F 40.7 °F 30.22 in South 1.2 mph   46 % 0.00 in
13:44 62.1 °F 40.5 °F 30.22 in NW 2.3 mph 2.3 mph 45 % 0.00 in
13:49 61.8 °F 41.9 °F 30.21 in Calm   0.1 mph 48 % 0.00 in
13:54 62.4 °F 41.3 °F 30.21 in Calm     46 % 0.00 in
13:59 63.2 °F 41.5 °F 30.21 in SE 3.5 mph 3.5 mph 45 % 0.00 in
14:04 63.5 °F 42.9 °F 30.21 in Calm     47 % 0.00 in
14:09 63.3 °F 40.4 °F 30.21 in WNW 2.0 mph 2.0 mph 43 % 0.00 in
14:14 62.6 °F 40.9 °F 30.21 in SE 1.2 mph   45 % 0.00 in
14:19 62.3 °F 39.5 °F 30.21 in WNW 2.3 mph 2.3 mph 43 % 0.00 in
14:24 62.2 °F 40.0 °F 30.21 in NW 1.2 mph 1.2 mph 44 % 0.00 in
14:29 62.4 °F 40.2 °F 30.21 in WNW 1.2 mph   44 % 0.00 in
14:34 62.4 °F 39.0 °F 30.21 in Calm     42 % 0.00 in
14:39 62.4 °F 39.0 °F 30.20 in SW 1.2 mph   42 % 0.00 in
14:44 62.7 °F 39.3 °F 30.20 in Calm     42 % 0.00 in
14:49 63.0 °F 40.1 °F 30.20 in NW 2.3 mph 2.3 mph 43 % 0.00 in
14:54 63.2 °F 39.7 °F 30.20 in Calm     42 % 0.00 in
14:59 63.4 °F 40.5 °F 30.20 in SE 1.2 mph 1.2 mph 43 % 0.00 in
15:04 63.7 °F 39.5 °F 30.20 in Calm     41 % 0.00 in
15:09 63.4 °F 39.3 °F 30.20 in NW 3.5 mph 3.5 mph 41 % 0.00 in
15:14 63.1 °F 40.2 °F 30.20 in NW 1.2 mph 1.2 mph 43 % 0.00 in
15:19 63.0 °F 39.5 °F 30.20 in Calm   0.1 mph 42 % 0.00 in
15:24 63.0 °F 40.1 °F 30.20 in Calm     43 % 0.00 in
15:29 63.1 °F 39.6 °F 30.20 in NW 1.2 mph   42 % 0.00 in
15:34 63.0 °F 39.5 °F 30.20 in NW 2.3 mph 2.3 mph 42 % 0.00 in
15:39 62.7 °F 39.9 °F 30.20 in NW 1.2 mph 1.2 mph 43 % 0.00 in
15:44 62.7 °F 39.9 °F 30.20 in NW 1.2 mph 1.2 mph 43 % 0.00 in
15:49 62.9 °F 38.8 °F 30.20 in Calm     41 % 0.00 in
15:54 62.9 °F 39.4 °F 30.20 in Calm     42 % 0.00 in
15:59 62.8 °F 38.7 °F 30.20 in NW 3.5 mph 3.5 mph 41 % 0.00 in
16:04 62.7 °F 38.6 °F 30.20 in NW 3.5 mph 3.5 mph 41 % 0.00 in
16:09 62.6 °F 38.6 °F 30.20 in NNW 1.2 mph 1.2 mph 41 % 0.00 in
16:14 62.8 °F 38.7 °F 30.20 in NW 2.3 mph 2.3 mph 41 % 0.00 in
16:19 62.7 °F 38.0 °F 30.20 in North 2.3 mph 2.3 mph 40 % 0.00 in
16:24 62.6 °F 37.3 °F 30.20 in WNW 2.3 mph 2.3 mph 39 % 0.00 in
16:29 62.5 °F 37.2 °F 30.20 in NW 1.2 mph   39 % 0.00 in
16:34 62.3 °F 37.0 °F 30.21 in NW 3.5 mph 3.5 mph 39 % 0.00 in
16:39 62.1 °F 37.5 °F 30.21 in NW 4.6 mph 4.6 mph 40 % 0.00 in
16:44 61.9 °F 37.3 °F 30.21 in NW 2.3 mph 2.3 mph 40 % 0.00 in
16:49 61.7 °F 37.7 °F 30.21 in WNW 2.3 mph 2.3 mph 41 % 0.00 in
16:54 61.6 °F 38.9 °F 30.21 in WNW 1.2 mph 1.2 mph 43 % 0.00 in
16:59 61.5 °F 38.2 °F 30.21 in NNW 2.3 mph 2.3 mph 42 % 0.00 in
17:04 61.4 °F 37.5 °F 30.21 in NW 2.3 mph 2.3 mph 41 % 0.00 in
17:09 61.2 °F 37.9 °F 30.21 in NW 1.2 mph   42 % 0.00 in
17:14 61.0 °F 37.7 °F 30.22 in NW 1.2 mph 1.2 mph 42 % 0.00 in
17:19 60.8 °F 37.5 °F 30.22 in Calm   0.3 mph 42 % 0.00 in
17:24 60.6 °F 38.0 °F 30.22 in Calm     43 % 0.00 in
17:29 60.3 °F 37.7 °F 30.22 in Calm     43 % 0.00 in
17:34 59.9 °F 37.9 °F 30.22 in Calm     44 % 0.00 in
17:39 59.4 °F 38.6 °F 30.22 in Calm     46 % 0.00 in
17:44 58.6 °F 39.0 °F 30.22 in Calm     48 % 0.00 in
17:49 57.8 °F 38.8 °F 30.22 in Calm     49 % 0.00 in
17:54 57.1 °F 39.1 °F 30.22 in Calm     51 % 0.00 in
18:00 56.3 °F 38.4 °F 30.22 in Calm     51 % 0.00 in
18:05 55.7 °F 38.3 °F 30.23 in Calm     52 % 0.00 in
18:09 55.3 °F 38.4 °F 30.23 in Calm     53 % 0.00 in
18:15 55.0 °F 38.6 °F 30.23 in Calm     54 % 0.00 in
18:20 54.5 °F 38.7 °F 30.23 in Calm     55 % 0.00 in
18:25 53.9 °F 38.6 °F 30.23 in Calm     56 % 0.00 in
18:30 53.5 °F 39.1 °F 30.24 in Calm     58 % 0.00 in
18:35 53.1 °F 39.1 °F 30.24 in Calm     59 % 0.00 in
18:40 52.8 °F 39.3 °F 30.24 in Calm     60 % 0.00 in
18:45 52.4 °F 38.9 °F 30.24 in Calm     60 % 0.00 in
18:50 52.0 °F 39.4 °F 30.24 in Calm     62 % 0.00 in
18:55 51.6 °F 39.0 °F 30.24 in Calm     62 % 0.00 in
19:00 51.4 °F 39.2 °F 30.25 in Calm     63 % 0.00 in
19:05 51.6 °F 39.4 °F 30.25 in Calm     63 % 0.00 in
19:10 51.4 °F 39.2 °F 30.25 in Calm     63 % 0.00 in
19:15 51.1 °F 38.9 °F 30.25 in Calm     63 % 0.00 in
19:20 50.9 °F 39.1 °F 30.25 in Calm     64 % 0.00 in
19:25 50.9 °F 39.5 °F 30.25 in Calm     65 % 0.00 in
19:30 50.6 °F 39.3 °F 30.25 in Calm     65 % 0.00 in
19:35 50.4 °F 39.1 °F 30.25 in Calm     65 % 0.00 in
19:40 50.1 °F 39.2 °F 30.25 in Calm     66 % 0.00 in
19:45 49.7 °F 39.6 °F 30.25 in Calm     68 % 0.00 in
19:50 49.3 °F 39.2 °F 30.25 in Calm     68 % 0.00 in
19:55 49.0 °F 40.0 °F 30.25 in Calm     71 % 0.00 in
20:00 48.7 °F 39.7 °F 30.26 in Calm     71 % 0.00 in
20:05 48.6 °F 40.0 °F 30.26 in Calm     72 % 0.00 in
20:10 48.5 °F 39.2 °F 30.26 in Calm     70 % 0.00 in
20:15 48.1 °F 39.1 °F 30.26 in Calm     71 % 0.00 in
20:20 47.8 °F 39.2 °F 30.26 in Calm     72 % 0.00 in
20:25 47.4 °F 39.5 °F 30.26 in Calm     74 % 0.00 in
20:30 46.8 °F 38.6 °F 30.26 in Calm     73 % 0.00 in
20:35 46.1 °F 38.6 °F 30.26 in Calm     75 % 0.00 in
20:40 45.7 °F 38.6 °F 30.27 in Calm     76 % 0.00 in
20:45 45.6 °F 38.5 °F 30.27 in Calm     76 % 0.00 in
20:50 45.4 °F 38.6 °F 30.27 in Calm     77 % 0.00 in
20:55 45.2 °F 38.4 °F 30.27 in Calm     77 % 0.00 in
21:00 45.0 °F 38.2 °F 30.27 in Calm     77 % 0.00 in
21:06 44.9 °F 38.8 °F 30.28 in Calm     79 % 0.00 in
21:11 44.7 °F 38.6 °F 30.28 in Calm     79 % 0.00 in
21:16 44.9 °F 38.5 °F 30.28 in Calm     78 % 0.00 in
21:21 44.9 °F 38.5 °F 30.28 in Calm     78 % 0.00 in
21:26 44.8 °F 38.4 °F 30.28 in Calm     78 % 0.00 in
21:31 44.5 °F 38.1 °F 30.29 in Calm     78 % 0.00 in
21:36 44.4 °F 38.0 °F 30.29 in Calm     78 % 0.00 in
21:41 44.3 °F 37.9 °F 30.29 in Calm     78 % 0.00 in
21:46 44.1 °F 37.7 °F 30.30 in Calm     78 % 0.00 in
21:51 44.0 °F 37.6 °F 30.30 in Calm     78 % 0.00 in
21:56 43.9 °F 37.5 °F 30.30 in Calm     78 % 0.00 in
22:01 43.6 °F 37.5 °F 30.30 in Calm     79 % 0.00 in
22:06 43.6 °F 37.8 °F 30.30 in Calm     80 % 0.00 in
22:11 43.9 °F 37.8 °F 30.30 in Calm     79 % 0.00 in
22:16 43.8 °F 37.7 °F 30.30 in Calm     79 % 0.00 in
22:21 43.4 °F 37.3 °F 30.30 in Calm     79 % 0.00 in
22:26 43.5 °F 37.4 °F 30.30 in Calm     79 % 0.00 in
22:31 43.4 °F 37.0 °F 30.30 in Calm     78 % 0.00 in
22:36 43.3 °F 36.9 °F 30.31 in Calm     78 % 0.00 in
22:41 43.2 °F 36.8 °F 30.31 in Calm     78 % 0.00 in
22:46 42.9 °F 36.8 °F 30.31 in Calm     79 % 0.00 in
22:51 42.7 °F 37.0 °F 30.31 in Calm     80 % 0.00 in
22:56 42.5 °F 37.1 °F 30.31 in Calm     81 % 0.00 in
23:01 42.4 °F 37.0 °F 30.31 in Calm     81 % 0.00 in
23:06 42.3 °F 36.9 °F 30.31 in Calm     81 % 0.00 in
23:11 41.9 °F 36.5 °F 30.31 in Calm     81 % 0.00 in
23:16 41.7 °F 36.3 °F 30.31 in Calm     81 % 0.00 in
23:21 41.6 °F 36.5 °F 30.31 in Calm     82 % 0.00 in
23:26 41.3 °F 36.2 °F 30.32 in Calm     82 % 0.00 in
23:31 41.2 °F 36.4 °F 30.32 in Calm     83 % 0.00 in
23:36 41.1 °F 36.3 °F 30.32 in Calm     83 % 0.00 in
23:41 41.0 °F 36.2 °F 30.32 in Calm     83 % 0.00 in
23:46 40.9 °F 36.1 °F 30.32 in Calm     83 % 0.00 in
23:51 40.8 °F 36.3 °F 30.32 in Calm     84 % 0.00 in
23:56 40.9 °F 36.4 °F 30.32 in Calm     84 % 0.00 in
Park Place, Exeter, Tulare County, California, USA
Compliments of Weather Underground - 2.75 mb